Dialville, Texas
Current Conditions -  °F | °C
As of 4:15 AM on Saturday 22 Nov 2014 (Local Time) from KJSO Reporting Station
Overcast Overcast  
Wind Chill: 57°   Ceiling: 1800
Heat Index: 57°   Visibility: 10mi
Dew Point: 54°   Wind: 8mph
Humidity: 87%   Direction: 140°SE
Pressure: 30.14"   Gusts: NA
Location:  31.7956°N, 95.1946°W
Report Text: KJSO 221015Z AUTO 14007KT 10SM BKN018 OVC026 13/12 A3014 RMK AO2 LTG DSNT NW T01410120
Loading
Personal Weather Stations






























Interactive Weather Map New forecast layout! Learn more

10-Day Weather Forecast

Advertisements
Track Severe Weather on mobile